sensor_id;sensor_type;location;lat;lon;timestamp;P1;durP1;ratioP1;P2;durP2;ratioP2
77701;SDS011;66868;42.708;23.404;2023-12-22T00:02:15;45.93;;;21.60;;
77701;SDS011;66868;42.708;23.404;2023-12-22T00:04:41;36.33;;;20.47;;
77701;SDS011;66868;42.708;23.404;2023-12-22T00:07:06;39.63;;;19.87;;
77701;SDS011;66868;42.708;23.404;2023-12-22T00:09:32;41.33;;;19.60;;
77701;SDS011;66868;42.708;23.404;2023-12-22T00:11:57;37.80;;;18.97;;
77701;SDS011;66868;42.708;23.404;2023-12-22T00:14:23;41.03;;;20.07;;
77701;SDS011;66868;42.708;23.404;2023-12-22T00:16:48;36.73;;;20.30;;
77701;SDS011;66868;42.708;23.404;2023-12-22T00:19:14;36.50;;;19.37;;
77701;SDS011;66868;42.708;23.404;2023-12-22T00:21:39;37.33;;;20.07;;
77701;SDS011;66868;42.708;23.404;2023-12-22T00:24:04;38.93;;;20.00;;
77701;SDS011;66868;42.708;23.404;2023-12-22T00:26:30;33.33;;;18.80;;
77701;SDS011;66868;42.708;23.404;2023-12-22T00:28:56;39.70;;;20.20;;
77701;SDS011;66868;42.708;23.404;2023-12-22T00:31:21;40.43;;;19.47;;
77701;SDS011;66868;42.708;23.404;2023-12-22T00:33:46;34.93;;;17.73;;
77701;SDS011;66868;42.708;23.404;2023-12-22T00:36:12;42.10;;;19.60;;
77701;SDS011;66868;42.708;23.404;2023-12-22T00:38:37;35.93;;;18.70;;
77701;SDS011;66868;42.708;23.404;2023-12-22T00:41:03;34.33;;;17.83;;
77701;SDS011;66868;42.708;23.404;2023-12-22T00:43:28;36.33;;;17.37;;
77701;SDS011;66868;42.708;23.404;2023-12-22T00:45:54;35.60;;;17.87;;
77701;SDS011;66868;42.708;23.404;2023-12-22T00:48:21;36.30;;;17.70;;
77701;SDS011;66868;42.708;23.404;2023-12-22T00:50:46;32.83;;;17.80;;
77701;SDS011;66868;42.708;23.404;2023-12-22T00:53:12;41.30;;;19.13;;
77701;SDS011;66868;42.708;23.404;2023-12-22T00:55:37;39.60;;;18.00;;
77701;SDS011;66868;42.708;23.404;2023-12-22T00:58:03;78.47;;;40.60;;
77701;SDS011;66868;42.708;23.404;2023-12-22T01:00:29;51.20;;;27.13;;
77701;SDS011;66868;42.708;23.404;2023-12-22T01:02:54;50.10;;;24.17;;
77701;SDS011;66868;42.708;23.404;2023-12-22T01:05:20;46.77;;;23.07;;
77701;SDS011;66868;42.708;23.404;2023-12-22T01:07:45;41.77;;;23.43;;
77701;SDS011;66868;42.708;23.404;2023-12-22T01:10:11;39.87;;;22.97;;
77701;SDS011;66868;42.708;23.404;2023-12-22T01:12:36;43.90;;;21.20;;
77701;SDS011;66868;42.708;23.404;2023-12-22T01:15:02;37.83;;;19.97;;
77701;SDS011;66868;42.708;23.404;2023-12-22T01:17:28;39.40;;;20.40;;
77701;SDS011;66868;42.708;23.404;2023-12-22T01:19:53;37.87;;;17.67;;
77701;SDS011;66868;42.708;23.404;2023-12-22T01:22:19;31.30;;;17.70;;
77701;SDS011;66868;42.708;23.404;2023-12-22T01:24:44;27.60;;;16.13;;
77701;SDS011;66868;42.708;23.404;2023-12-22T01:27:10;29.63;;;16.47;;
77701;SDS011;66868;42.708;23.404;2023-12-22T01:29:36;26.87;;;16.40;;
77701;SDS011;66868;42.708;23.404;2023-12-22T01:32:01;29.80;;;16.73;;
77701;SDS011;66868;42.708;23.404;2023-12-22T01:34:27;25.53;;;15.17;;
77701;SDS011;66868;42.708;23.404;2023-12-22T01:36:53;37.67;;;19.07;;
77701;SDS011;66868;42.708;23.404;2023-12-22T01:39:19;30.73;;;16.23;;
77701;SDS011;66868;42.708;23.404;2023-12-22T01:41:44;31.07;;;16.20;;
77701;SDS011;66868;42.708;23.404;2023-12-22T01:44:10;31.97;;;16.73;;
77701;SDS011;66868;42.708;23.404;2023-12-22T01:46:35;30.43;;;15.83;;
77701;SDS011;66868;42.708;23.404;2023-12-22T01:49:01;32.73;;;14.83;;
77701;SDS011;66868;42.708;23.404;2023-12-22T01:51:31;26.17;;;14.50;;
77701;SDS011;66868;42.708;23.404;2023-12-22T01:53:58;28.13;;;14.10;;
77701;SDS011;66868;42.708;23.404;2023-12-22T01:56:25;28.47;;;14.97;;
77701;SDS011;66868;42.708;23.404;2023-12-22T01:58:52;28.00;;;14.63;;
77701;SDS011;66868;42.708;23.404;2023-12-22T02:01:22;31.23;;;15.23;;
77701;SDS011;66868;42.708;23.404;2023-12-22T02:03:49;28.83;;;16.00;;
77701;SDS011;66868;42.708;23.404;2023-12-22T02:06:17;25.37;;;15.10;;
77701;SDS011;66868;42.708;23.404;2023-12-22T02:08:43;29.10;;;15.33;;
77701;SDS011;66868;42.708;23.404;2023-12-22T02:11:12;31.10;;;14.90;;
77701;SDS011;66868;42.708;23.404;2023-12-22T02:13:37;26.27;;;15.10;;
77701;SDS011;66868;42.708;23.404;2023-12-22T02:16:04;31.97;;;15.30;;
77701;SDS011;66868;42.708;23.404;2023-12-22T02:18:40;29.87;;;15.87;;
77701;SDS011;66868;42.708;23.404;2023-12-22T02:21:10;25.70;;;14.87;;
77701;SDS011;66868;42.708;23.404;2023-12-22T02:23:35;27.90;;;15.93;;
77701;SDS011;66868;42.708;23.404;2023-12-22T02:26:05;31.63;;;16.40;;
77701;SDS011;66868;42.708;23.404;2023-12-22T02:28:35;27.60;;;14.73;;
77701;SDS011;66868;42.708;23.404;2023-12-22T02:31:09;27.30;;;15.10;;
77701;SDS011;66868;42.708;23.404;2023-12-22T02:34:01;28.50;;;15.17;;
77701;SDS011;66868;42.708;23.404;2023-12-22T02:36:32;29.67;;;15.23;;
77701;SDS011;66868;42.708;23.404;2023-12-22T02:39:01;30.40;;;16.33;;
77701;SDS011;66868;42.708;23.404;2023-12-22T02:41:27;24.97;;;14.60;;
77701;SDS011;66868;42.708;23.404;2023-12-22T02:43:53;27.43;;;14.63;;
77701;SDS011;66868;42.708;23.404;2023-12-22T02:46:18;23.90;;;14.57;;
77701;SDS011;66868;42.708;23.404;2023-12-22T02:48:44;28.87;;;16.10;;
77701;SDS011;66868;42.708;23.404;2023-12-22T02:51:09;28.13;;;15.20;;
77701;SDS011;66868;42.708;23.404;2023-12-22T02:53:35;28.43;;;14.53;;
77701;SDS011;66868;42.708;23.404;2023-12-22T02:56:00;25.73;;;13.73;;
77701;SDS011;66868;42.708;23.404;2023-12-22T02:58:26;35.77;;;14.13;;
77701;SDS011;66868;42.708;23.404;2023-12-22T03:00:51;23.77;;;13.20;;
77701;SDS011;66868;42.708;23.404;2023-12-22T03:03:17;30.00;;;14.37;;
77701;SDS011;66868;42.708;23.404;2023-12-22T03:05:42;29.10;;;16.00;;
77701;SDS011;66868;42.708;23.404;2023-12-22T03:08:08;27.43;;;15.77;;
77701;SDS011;66868;42.708;23.404;2023-12-22T03:10:33;29.13;;;14.97;;
77701;SDS011;66868;42.708;23.404;2023-12-22T03:12:58;29.73;;;16.27;;
77701;SDS011;66868;42.708;23.404;2023-12-22T03:15:24;31.37;;;17.40;;
77701;SDS011;66868;42.708;23.404;2023-12-22T03:17:50;36.07;;;20.50;;
77701;SDS011;66868;42.708;23.404;2023-12-22T03:20:16;31.10;;;18.57;;
77701;SDS011;66868;42.708;23.404;2023-12-22T03:22:41;33.00;;;18.07;;
77701;SDS011;66868;42.708;23.404;2023-12-22T03:25:07;26.90;;;16.03;;
77701;SDS011;66868;42.708;23.404;2023-12-22T03:27:32;25.70;;;17.23;;
77701;SDS011;66868;42.708;23.404;2023-12-22T03:29:58;37.20;;;17.40;;
77701;SDS011;66868;42.708;23.404;2023-12-22T03:32:23;25.50;;;15.03;;
77701;SDS011;66868;42.708;23.404;2023-12-22T03:34:49;33.40;;;16.53;;
77701;SDS011;66868;42.708;23.404;2023-12-22T03:37:14;30.43;;;16.87;;
77701;SDS011;66868;42.708;23.404;2023-12-22T03:39:39;31.30;;;16.37;;
77701;SDS011;66868;42.708;23.404;2023-12-22T03:42:05;42.43;;;18.90;;
77701;SDS011;66868;42.708;23.404;2023-12-22T03:44:31;31.47;;;16.47;;
77701;SDS011;66868;42.708;23.404;2023-12-22T03:46:56;24.47;;;14.10;;
77701;SDS011;66868;42.708;23.404;2023-12-22T03:49:22;25.30;;;14.10;;
77701;SDS011;66868;42.708;23.404;2023-12-22T03:51:47;26.83;;;15.77;;
77701;SDS011;66868;42.708;23.404;2023-12-22T03:54:13;24.97;;;14.30;;
77701;SDS011;66868;42.708;23.404;2023-12-22T03:56:41;26.70;;;14.77;;
77701;SDS011;66868;42.708;23.404;2023-12-22T03:59:06;28.57;;;15.90;;
77701;SDS011;66868;42.708;23.404;2023-12-22T04:01:31;25.63;;;15.40;;
77701;SDS011;66868;42.708;23.404;2023-12-22T04:03:57;29.30;;;14.80;;
77701;SDS011;66868;42.708;23.404;2023-12-22T04:06:23;21.80;;;13.80;;
77701;SDS011;66868;42.708;23.404;2023-12-22T04:08:48;23.17;;;13.90;;
77701;SDS011;66868;42.708;23.404;2023-12-22T04:11:14;21.40;;;13.97;;
77701;SDS011;66868;42.708;23.404;2023-12-22T04:13:39;30.23;;;14.33;;
77701;SDS011;66868;42.708;23.404;2023-12-22T04:16:05;23.63;;;13.90;;
77701;SDS011;66868;42.708;23.404;2023-12-22T04:18:30;31.10;;;14.90;;
77701;SDS011;66868;42.708;23.404;2023-12-22T04:20:56;27.93;;;15.70;;
77701;SDS011;66868;42.708;23.404;2023-12-22T04:23:22;20.90;;;13.27;;
77701;SDS011;66868;42.708;23.404;2023-12-22T04:25:47;23.57;;;13.13;;
77701;SDS011;66868;42.708;23.404;2023-12-22T04:28:13;25.23;;;14.00;;
77701;SDS011;66868;42.708;23.404;2023-12-22T04:30:39;28.83;;;15.43;;
77701;SDS011;66868;42.708;23.404;2023-12-22T04:33:04;22.70;;;14.47;;
77701;SDS011;66868;42.708;23.404;2023-12-22T04:35:30;24.73;;;14.67;;
77701;SDS011;66868;42.708;23.404;2023-12-22T04:37:56;27.97;;;14.90;;
77701;SDS011;66868;42.708;23.404;2023-12-22T04:40:21;30.90;;;15.13;;
77701;SDS011;66868;42.708;23.404;2023-12-22T04:42:46;25.93;;;15.37;;
77701;SDS011;66868;42.708;23.404;2023-12-22T04:45:12;29.87;;;17.03;;
77701;SDS011;66868;42.708;23.404;2023-12-22T04:47:38;33.20;;;18.07;;
77701;SDS011;66868;42.708;23.404;2023-12-22T04:50:03;49.70;;;24.77;;
77701;SDS011;66868;42.708;23.404;2023-12-22T04:52:29;41.90;;;22.77;;
77701;SDS011;66868;42.708;23.404;2023-12-22T04:54:55;49.20;;;23.47;;
77701;SDS011;66868;42.708;23.404;2023-12-22T04:57:21;51.50;;;23.20;;
77701;SDS011;66868;42.708;23.404;2023-12-22T04:59:47;39.83;;;23.03;;
77701;SDS011;66868;42.708;23.404;2023-12-22T05:02:12;41.43;;;23.13;;
77701;SDS011;66868;42.708;23.404;2023-12-22T05:04:38;45.80;;;19.77;;
77701;SDS011;66868;42.708;23.404;2023-12-22T05:07:03;36.93;;;21.13;;
77701;SDS011;66868;42.708;23.404;2023-12-22T05:09:32;44.83;;;24.13;;
77701;SDS011;66868;42.708;23.404;2023-12-22T05:11:58;42.50;;;22.77;;
77701;SDS011;66868;42.708;23.404;2023-12-22T05:14:24;39.13;;;21.47;;
77701;SDS011;66868;42.708;23.404;2023-12-22T05:16:49;48.80;;;21.50;;
77701;SDS011;66868;42.708;23.404;2023-12-22T05:19:20;48.10;;;22.40;;
77701;SDS011;66868;42.708;23.404;2023-12-22T05:21:45;42.93;;;23.87;;
77701;SDS011;66868;42.708;23.404;2023-12-22T05:24:11;47.13;;;23.90;;
77701;SDS011;66868;42.708;23.404;2023-12-22T05:26:36;54.60;;;24.67;;
77701;SDS011;66868;42.708;23.404;2023-12-22T05:29:02;47.73;;;23.97;;
77701;SDS011;66868;42.708;23.404;2023-12-22T05:31:27;48.70;;;24.90;;
77701;SDS011;66868;42.708;23.404;2023-12-22T05:33:52;54.30;;;23.97;;
77701;SDS011;66868;42.708;23.404;2023-12-22T05:36:18;60.33;;;27.53;;
77701;SDS011;66868;42.708;23.404;2023-12-22T05:38:43;49.70;;;25.77;;
77701;SDS011;66868;42.708;23.404;2023-12-22T05:41:09;44.77;;;25.10;;
77701;SDS011;66868;42.708;23.404;2023-12-22T05:43:34;46.87;;;23.60;;
77701;SDS011;66868;42.708;23.404;2023-12-22T05:46:00;55.90;;;24.77;;
77701;SDS011;66868;42.708;23.404;2023-12-22T05:48:26;64.23;;;27.50;;
77701;SDS011;66868;42.708;23.404;2023-12-22T05:50:52;57.43;;;26.43;;
77701;SDS011;66868;42.708;23.404;2023-12-22T05:53:18;49.10;;;25.00;;
77701;SDS011;66868;42.708;23.404;2023-12-22T05:55:44;60.83;;;27.07;;
77701;SDS011;66868;42.708;23.404;2023-12-22T05:58:09;57.47;;;27.53;;
77701;SDS011;66868;42.708;23.404;2023-12-22T06:00:35;71.67;;;30.53;;
77701;SDS011;66868;42.708;23.404;2023-12-22T06:03:01;59.00;;;27.23;;
77701;SDS011;66868;42.708;23.404;2023-12-22T06:05:26;45.07;;;21.57;;
77701;SDS011;66868;42.708;23.404;2023-12-22T06:07:52;47.33;;;23.20;;
77701;SDS011;66868;42.708;23.404;2023-12-22T06:10:17;62.20;;;26.47;;
77701;SDS011;66868;42.708;23.404;2023-12-22T06:12:43;57.70;;;25.63;;
77701;SDS011;66868;42.708;23.404;2023-12-22T06:15:09;43.47;;;19.73;;
77701;SDS011;66868;42.708;23.404;2023-12-22T06:17:35;41.83;;;21.80;;
77701;SDS011;66868;42.708;23.404;2023-12-22T06:20:00;33.60;;;17.90;;
77701;SDS011;66868;42.708;23.404;2023-12-22T06:22:26;25.33;;;15.90;;
77701;SDS011;66868;42.708;23.404;2023-12-22T06:24:51;27.77;;;14.30;;
77701;SDS011;66868;42.708;23.404;2023-12-22T06:27:17;39.77;;;21.77;;
77701;SDS011;66868;42.708;23.404;2023-12-22T06:29:42;44.63;;;22.13;;
77701;SDS011;66868;42.708;23.404;2023-12-22T06:32:08;51.10;;;21.93;;
77701;SDS011;66868;42.708;23.404;2023-12-22T06:34:34;46.47;;;20.70;;
77701;SDS011;66868;42.708;23.404;2023-12-22T06:36:59;44.80;;;21.73;;
77701;SDS011;66868;42.708;23.404;2023-12-22T06:39:25;34.23;;;18.67;;
77701;SDS011;66868;42.708;23.404;2023-12-22T06:41:50;55.17;;;20.27;;
77701;SDS011;66868;42.708;23.404;2023-12-22T06:44:16;38.27;;;16.93;;
77701;SDS011;66868;42.708;23.404;2023-12-22T06:46:41;38.83;;;19.10;;
77701;SDS011;66868;42.708;23.404;2023-12-22T06:49:07;32.90;;;17.10;;
77701;SDS011;66868;42.708;23.404;2023-12-22T06:51:32;41.83;;;19.00;;
77701;SDS011;66868;42.708;23.404;2023-12-22T06:54:00;42.73;;;19.27;;
77701;SDS011;66868;42.708;23.404;2023-12-22T06:56:29;59.63;;;23.57;;
77701;SDS011;66868;42.708;23.404;2023-12-22T06:58:57;64.38;;;23.05;;
77701;SDS011;66868;42.708;23.404;2023-12-22T07:01:25;51.87;;;22.53;;
77701;SDS011;66868;42.708;23.404;2023-12-22T07:03:53;74.93;;;28.23;;
77701;SDS011;66868;42.708;23.404;2023-12-22T07:06:19;42.63;;;21.77;;
77701;SDS011;66868;42.708;23.404;2023-12-22T07:11:48;51.85;;;23.83;;
77701;SDS011;66868;42.708;23.404;2023-12-22T07:14:15;53.90;;;23.97;;
77701;SDS011;66868;42.708;23.404;2023-12-22T07:16:41;48.27;;;21.27;;
77701;SDS011;66868;42.708;23.404;2023-12-22T07:19:10;45.00;;;21.90;;
77701;SDS011;66868;42.708;23.404;2023-12-22T07:21:38;69.83;;;29.40;;
77701;SDS011;66868;42.708;23.404;2023-12-22T07:24:06;59.83;;;25.67;;
77701;SDS011;66868;42.708;23.404;2023-12-22T07:26:32;56.77;;;23.70;;
77701;SDS011;66868;42.708;23.404;2023-12-22T07:28:58;55.83;;;26.40;;
77701;SDS011;66868;42.708;23.404;2023-12-22T07:31:24;55.27;;;25.87;;
77701;SDS011;66868;42.708;23.404;2023-12-22T07:33:50;65.33;;;26.73;;
77701;SDS011;66868;42.708;23.404;2023-12-22T07:36:17;73.13;;;29.90;;
77701;SDS011;66868;42.708;23.404;2023-12-22T07:38:43;84.57;;;30.90;;
77701;SDS011;66868;42.708;23.404;2023-12-22T07:41:09;79.07;;;29.80;;
77701;SDS011;66868;42.708;23.404;2023-12-22T07:43:35;78.77;;;30.93;;
77701;SDS011;66868;42.708;23.404;2023-12-22T07:46:01;104.37;;;36.87;;
77701;SDS011;66868;42.708;23.404;2023-12-22T07:48:26;94.97;;;36.93;;
77701;SDS011;66868;42.708;23.404;2023-12-22T07:50:52;105.47;;;36.97;;
77701;SDS011;66868;42.708;23.404;2023-12-22T07:53:18;83.05;;;32.25;;
77701;SDS011;66868;42.708;23.404;2023-12-22T07:55:43;72.77;;;31.63;;
77701;SDS011;66868;42.708;23.404;2023-12-22T07:58:09;61.75;;;30.65;;
77701;SDS011;66868;42.708;23.404;2023-12-22T08:00:36;74.65;;;36.35;;
77701;SDS011;66868;42.708;23.404;2023-12-22T08:03:02;70.10;;;33.53;;
77701;SDS011;66868;42.708;23.404;2023-12-22T08:05:28;59.53;;;30.15;;
77701;SDS011;66868;42.708;23.404;2023-12-22T08:07:54;62.58;;;30.60;;
77701;SDS011;66868;42.708;23.404;2023-12-22T08:10:20;60.63;;;28.73;;
77701;SDS011;66868;42.708;23.404;2023-12-22T08:12:45;50.20;;;26.47;;
77701;SDS011;66868;42.708;23.404;2023-12-22T08:15:11;49.97;;;27.03;;
77701;SDS011;66868;42.708;23.404;2023-12-22T08:17:37;50.28;;;24.67;;
77701;SDS011;66868;42.708;23.404;2023-12-22T08:20:06;46.42;;;25.55;;
77701;SDS011;66868;42.708;23.404;2023-12-22T08:22:33;50.78;;;26.50;;
77701;SDS011;66868;42.708;23.404;2023-12-22T08:24:59;54.00;;;26.08;;
77701;SDS011;66868;42.708;23.404;2023-12-22T08:27:24;55.38;;;24.38;;
77701;SDS011;66868;42.708;23.404;2023-12-22T08:29:50;47.10;;;22.37;;
77701;SDS011;66868;42.708;23.404;2023-12-22T08:32:15;52.43;;;24.00;;
77701;SDS011;66868;42.708;23.404;2023-12-22T08:34:41;53.70;;;23.07;;
77701;SDS011;66868;42.708;23.404;2023-12-22T08:37:06;52.03;;;26.38;;
77701;SDS011;66868;42.708;23.404;2023-12-22T08:39:31;55.50;;;23.70;;
77701;SDS011;66868;42.708;23.404;2023-12-22T08:41:57;59.17;;;25.60;;
77701;SDS011;66868;42.708;23.404;2023-12-22T08:44:22;54.40;;;25.85;;
77701;SDS011;66868;42.708;23.404;2023-12-22T08:46:48;56.45;;;26.30;;
77701;SDS011;66868;42.708;23.404;2023-12-22T08:49:13;54.60;;;23.27;;
77701;SDS011;66868;42.708;23.404;2023-12-22T08:51:39;49.80;;;22.17;;
77701;SDS011;66868;42.708;23.404;2023-12-22T08:54:04;45.47;;;22.67;;
77701;SDS011;66868;42.708;23.404;2023-12-22T08:56:30;58.17;;;24.53;;
77701;SDS011;66868;42.708;23.404;2023-12-22T08:58:55;55.05;;;25.35;;
77701;SDS011;66868;42.708;23.404;2023-12-22T09:01:23;50.57;;;24.57;;
77701;SDS011;66868;42.708;23.404;2023-12-22T09:03:49;57.38;;;23.65;;
77701;SDS011;66868;42.708;23.404;2023-12-22T09:06:15;68.15;;;32.13;;
77701;SDS011;66868;42.708;23.404;2023-12-22T09:08:44;57.47;;;25.63;;
77701;SDS011;66868;42.708;23.404;2023-12-22T09:11:13;41.97;;;21.95;;
77701;SDS011;66868;42.708;23.404;2023-12-22T09:13:40;44.87;;;21.67;;
77701;SDS011;66868;42.708;23.404;2023-12-22T09:16:06;39.30;;;20.83;;
77701;SDS011;66868;42.708;23.404;2023-12-22T09:18:32;37.80;;;20.57;;
77701;SDS011;66868;42.708;23.404;2023-12-22T09:20:58;41.35;;;18.92;;
77701;SDS011;66868;42.708;23.404;2023-12-22T09:23:24;35.03;;;18.75;;
77701;SDS011;66868;42.708;23.404;2023-12-22T09:25:50;30.60;;;19.27;;
77701;SDS011;66868;42.708;23.404;2023-12-22T09:28:15;35.03;;;18.50;;
77701;SDS011;66868;42.708;23.404;2023-12-22T09:30:41;38.33;;;17.93;;
77701;SDS011;66868;42.708;23.404;2023-12-22T09:33:07;30.73;;;18.27;;
77701;SDS011;66868;42.708;23.404;2023-12-22T09:35:34;31.23;;;18.23;;
77701;SDS011;66868;42.708;23.404;2023-12-22T09:38:00;37.97;;;17.00;;
77701;SDS011;66868;42.708;23.404;2023-12-22T09:40:25;29.77;;;14.68;;
77701;SDS011;66868;42.708;23.404;2023-12-22T09:42:52;33.95;;;14.90;;
77701;SDS011;66868;42.708;23.404;2023-12-22T09:45:19;31.65;;;15.68;;
77701;SDS011;66868;42.708;23.404;2023-12-22T09:47:46;33.47;;;14.32;;
77701;SDS011;66868;42.708;23.404;2023-12-22T09:50:14;22.90;;;14.30;;
77701;SDS011;66868;42.708;23.404;2023-12-22T09:52:42;22.48;;;12.50;;
77701;SDS011;66868;42.708;23.404;2023-12-22T09:55:09;24.38;;;13.10;;
77701;SDS011;66868;42.708;23.404;2023-12-22T09:57:35;24.65;;;12.77;;
77701;SDS011;66868;42.708;23.404;2023-12-22T10:00:03;22.33;;;12.60;;
77701;SDS011;66868;42.708;23.404;2023-12-22T10:02:33;28.17;;;14.32;;
77701;SDS011;66868;42.708;23.404;2023-12-22T10:05:02;40.05;;;18.58;;
77701;SDS011;66868;42.708;23.404;2023-12-22T10:07:28;35.65;;;19.75;;
77701;SDS011;66868;42.708;23.404;2023-12-22T10:09:56;34.80;;;18.70;;
77701;SDS011;66868;42.708;23.404;2023-12-22T10:12:23;30.92;;;16.38;;
77701;SDS011;66868;42.708;23.404;2023-12-22T10:14:50;32.30;;;17.45;;
77701;SDS011;66868;42.708;23.404;2023-12-22T10:17:17;30.20;;;16.45;;
77701;SDS011;66868;42.708;23.404;2023-12-22T10:19:43;25.73;;;13.68;;
77701;SDS011;66868;42.708;23.404;2023-12-22T10:22:08;24.25;;;14.27;;
77701;SDS011;66868;42.708;23.404;2023-12-22T10:24:40;47.80;;;22.25;;
77701;SDS011;66868;42.708;23.404;2023-12-22T10:27:09;43.08;;;21.48;;
77701;SDS011;66868;42.708;23.404;2023-12-22T10:29:35;52.83;;;24.45;;
77701;SDS011;66868;42.708;23.404;2023-12-22T10:32:01;41.22;;;22.60;;
77701;SDS011;66868;42.708;23.404;2023-12-22T10:34:28;45.33;;;23.45;;
77701;SDS011;66868;42.708;23.404;2023-12-22T10:36:54;39.55;;;21.92;;
77701;SDS011;66868;42.708;23.404;2023-12-22T10:39:20;40.67;;;21.92;;
77701;SDS011;66868;42.708;23.404;2023-12-22T10:41:49;43.20;;;20.45;;
77701;SDS011;66868;42.708;23.404;2023-12-22T10:44:14;33.38;;;19.63;;
77701;SDS011;66868;42.708;23.404;2023-12-22T10:46:42;24.17;;;13.02;;
77701;SDS011;66868;42.708;23.404;2023-12-22T10:49:08;24.23;;;13.10;;
77701;SDS011;66868;42.708;23.404;2023-12-22T10:51:33;18.73;;;11.95;;
77701;SDS011;66868;42.708;23.404;2023-12-22T10:53:59;12.80;;;9.32;;
77701;SDS011;66868;42.708;23.404;2023-12-22T10:56:25;17.50;;;9.77;;
77701;SDS011;66868;42.708;23.404;2023-12-22T10:58:51;11.40;;;7.57;;
77701;SDS011;66868;42.708;23.404;2023-12-22T11:01:18;6.28;;;5.68;;
77701;SDS011;66868;42.708;23.404;2023-12-22T11:03:48;8.68;;;5.82;;
77701;SDS011;66868;42.708;23.404;2023-12-22T11:06:16;4.55;;;4.15;;
77701;SDS011;66868;42.708;23.404;2023-12-22T11:08:42;14.27;;;9.40;;
77701;SDS011;66868;42.708;23.404;2023-12-22T11:11:26;9.77;;;8.00;;
77701;SDS011;66868;42.708;23.404;2023-12-22T11:13:56;8.52;;;7.07;;
77701;SDS011;66868;42.708;23.404;2023-12-22T11:16:23;8.07;;;6.60;;
77701;SDS011;66868;42.708;23.404;2023-12-22T11:18:51;8.65;;;6.78;;
77701;SDS011;66868;42.708;23.404;2023-12-22T11:21:20;5.78;;;5.28;;
77701;SDS011;66868;42.708;23.404;2023-12-22T11:23:47;7.30;;;6.60;;
77701;SDS011;66868;42.708;23.404;2023-12-22T11:26:16;10.77;;;7.78;;
77701;SDS011;66868;42.708;23.404;2023-12-22T11:28:42;9.85;;;6.82;;
77701;SDS011;66868;42.708;23.404;2023-12-22T11:31:09;16.33;;;9.48;;
77701;SDS011;66868;42.708;23.404;2023-12-22T11:33:36;19.50;;;11.43;;
77701;SDS011;66868;42.708;23.404;2023-12-22T11:36:05;14.98;;;9.18;;
77701;SDS011;66868;42.708;23.404;2023-12-22T11:38:31;13.13;;;7.90;;
77701;SDS011;66868;42.708;23.404;2023-12-22T11:40:56;10.10;;;5.93;;
77701;SDS011;66868;42.708;23.404;2023-12-22T11:43:24;7.35;;;6.07;;
77701;SDS011;66868;42.708;23.404;2023-12-22T11:45:50;14.68;;;8.13;;
77701;SDS011;66868;42.708;23.404;2023-12-22T11:48:16;11.45;;;7.75;;
77701;SDS011;66868;42.708;23.404;2023-12-22T11:50:42;12.57;;;8.13;;
77701;SDS011;66868;42.708;23.404;2023-12-22T11:53:20;11.50;;;7.50;;
77701;SDS011;66868;42.708;23.404;2023-12-22T11:58:35;4.03;;;3.72;;
77701;SDS011;66868;42.708;23.404;2023-12-22T12:01:13;4.97;;;4.32;;
77701;SDS011;66868;42.708;23.404;2023-12-22T12:03:48;5.85;;;4.35;;
77701;SDS011;66868;42.708;23.404;2023-12-22T12:08:50;4.35;;;3.95;;
77701;SDS011;66868;42.708;23.404;2023-12-22T12:11:16;3.75;;;3.53;;
77701;SDS011;66868;42.708;23.404;2023-12-22T12:13:44;3.92;;;3.65;;
77701;SDS011;66868;42.708;23.404;2023-12-22T12:16:14;10.23;;;4.18;;
77701;SDS011;66868;42.708;23.404;2023-12-22T12:18:44;4.82;;;4.53;;
77701;SDS011;66868;42.708;23.404;2023-12-22T12:21:10;16.58;;;7.68;;
77701;SDS011;66868;42.708;23.404;2023-12-22T12:23:36;3.42;;;2.80;;
77701;SDS011;66868;42.708;23.404;2023-12-22T12:26:04;3.80;;;2.03;;
77701;SDS011;66868;42.708;23.404;2023-12-22T12:28:32;3.67;;;2.03;;
77701;SDS011;66868;42.708;23.404;2023-12-22T12:31:00;2.53;;;2.33;;
77701;SDS011;66868;42.708;23.404;2023-12-22T12:33:29;1.38;;;1.38;;
77701;SDS011;66868;42.708;23.404;2023-12-22T12:36:02;1.70;;;1.60;;
77701;SDS011;66868;42.708;23.404;2023-12-22T12:41:06;2.03;;;1.92;;
77701;SDS011;66868;42.708;23.404;2023-12-22T12:43:34;1.85;;;1.75;;
77701;SDS011;66868;42.708;23.404;2023-12-22T12:46:07;2.25;;;2.05;;
77701;SDS011;66868;42.708;23.404;2023-12-22T12:48:32;2.20;;;1.52;;
77701;SDS011;66868;42.708;23.404;2023-12-22T12:51:04;1.77;;;1.67;;
77701;SDS011;66868;42.708;23.404;2023-12-22T12:53:31;2.05;;;1.42;;
77701;SDS011;66868;42.708;23.404;2023-12-22T12:56:00;2.08;;;1.95;;
77701;SDS011;66868;42.708;23.404;2023-12-22T12:58:29;2.25;;;1.80;;
77701;SDS011;66868;42.708;23.404;2023-12-22T13:01:06;2.10;;;2.00;;
77701;SDS011;66868;42.708;23.404;2023-12-22T13:03:32;2.35;;;2.25;;
77701;SDS011;66868;42.708;23.404;2023-12-22T13:06:07;2.78;;;2.58;;
77701;SDS011;66868;42.708;23.404;2023-12-22T13:08:33;3.58;;;3.03;;
77701;SDS011;66868;42.708;23.404;2023-12-22T13:11:02;2.67;;;2.38;;
77701;SDS011;66868;42.708;23.404;2023-12-22T13:13:27;8.55;;;4.43;;
77701;SDS011;66868;42.708;23.404;2023-12-22T13:15:53;3.50;;;3.05;;
77701;SDS011;66868;42.708;23.404;2023-12-22T13:18:18;3.65;;;3.20;;
77701;SDS011;66868;42.708;23.404;2023-12-22T13:20:44;4.30;;;2.30;;
77701;SDS011;66868;42.708;23.404;2023-12-22T13:23:10;2.92;;;2.72;;
77701;SDS011;66868;42.708;23.404;2023-12-22T13:25:41;3.85;;;2.55;;
77701;SDS011;66868;42.708;23.404;2023-12-22T13:28:07;3.47;;;2.45;;
77701;SDS011;66868;42.708;23.404;2023-12-22T13:30:35;2.50;;;2.30;;
77701;SDS011;66868;42.708;23.404;2023-12-22T13:33:03;2.42;;;2.25;;
77701;SDS011;66868;42.708;23.404;2023-12-22T13:35:29;2.78;;;2.63;;
77701;SDS011;66868;42.708;23.404;2023-12-22T13:37:55;10.32;;;6.10;;
77701;SDS011;66868;42.708;23.404;2023-12-22T13:40:21;3.83;;;3.08;;
77701;SDS011;66868;42.708;23.404;2023-12-22T13:42:56;7.68;;;5.28;;
77701;SDS011;66868;42.708;23.404;2023-12-22T13:45:23;2.53;;;2.42;;
77701;SDS011;66868;42.708;23.404;2023-12-22T13:47:49;2.58;;;2.38;;
77701;SDS011;66868;42.708;23.404;2023-12-22T13:50:15;2.00;;;1.90;;
77701;SDS011;66868;42.708;23.404;2023-12-22T13:52:41;3.03;;;2.35;;
77701;SDS011;66868;42.708;23.404;2023-12-22T13:55:15;2.08;;;1.98;;
77701;SDS011;66868;42.708;23.404;2023-12-22T13:57:41;2.67;;;2.35;;
77701;SDS011;66868;42.708;23.404;2023-12-22T14:02:45;2.42;;;2.33;;
77701;SDS011;66868;42.708;23.404;2023-12-22T14:05:11;7.43;;;4.63;;
77701;SDS011;66868;42.708;23.404;2023-12-22T14:07:37;13.52;;;5.15;;
77701;SDS011;66868;42.708;23.404;2023-12-22T14:10:06;4.70;;;3.08;;
77701;SDS011;66868;42.708;23.404;2023-12-22T14:12:32;10.68;;;5.35;;
77701;SDS011;66868;42.708;23.404;2023-12-22T14:14:58;4.18;;;3.72;;
77701;SDS011;66868;42.708;23.404;2023-12-22T14:17:23;4.18;;;2.88;;
77701;SDS011;66868;42.708;23.404;2023-12-22T14:19:49;3.50;;;3.15;;
77701;SDS011;66868;42.708;23.404;2023-12-22T14:22:15;3.35;;;3.05;;
77701;SDS011;66868;42.708;23.404;2023-12-22T14:24:40;2.70;;;2.50;;